sensor_id;sensor_type;location;lat;lon;timestamp;pressure;altitude;pressure_sealevel;temperature;humidity
21234;BME280;10774;42.178;26.578;2023-08-20T00:00:08;100071.81;;;23.03;92.58
21234;BME280;10774;42.178;26.578;2023-08-20T00:02:35;100063.78;;;23.02;92.50
21234;BME280;10774;42.178;26.578;2023-08-20T00:05:02;100072.84;;;23.10;91.98
21234;BME280;10774;42.178;26.578;2023-08-20T00:07:32;100068.03;;;23.04;92.45
21234;BME280;10774;42.178;26.578;2023-08-20T00:09:58;100079.00;;;23.12;91.66
21234;BME280;10774;42.178;26.578;2023-08-20T00:12:24;100078.66;;;23.07;89.66
21234;BME280;10774;42.178;26.578;2023-08-20T00:17:18;100084.28;;;23.14;91.35
21234;BME280;10774;42.178;26.578;2023-08-20T00:19:44;100065.22;;;22.73;94.83
21234;BME280;10774;42.178;26.578;2023-08-20T00:22:10;100079.91;;;22.88;95.18
21234;BME280;10774;42.178;26.578;2023-08-20T00:24:35;100085.03;;;22.67;96.40
21234;BME280;10774;42.178;26.578;2023-08-20T00:27:01;100087.63;;;22.68;97.93
21234;BME280;10774;42.178;26.578;2023-08-20T00:29:26;100090.34;;;22.60;100.00
21234;BME280;10774;42.178;26.578;2023-08-20T00:31:52;100086.59;;;22.69;99.82
21234;BME280;10774;42.178;26.578;2023-08-20T00:34:17;100085.88;;;22.76;98.96
21234;BME280;10774;42.178;26.578;2023-08-20T00:36:42;100070.16;;;22.69;99.26
21234;BME280;10774;42.178;26.578;2023-08-20T00:39:08;100092.25;;;22.43;100.00
21234;BME280;10774;42.178;26.578;2023-08-20T00:41:33;100083.50;;;22.24;100.00
21234;BME280;10774;42.178;26.578;2023-08-20T00:43:59;100081.44;;;22.09;100.00
21234;BME280;10774;42.178;26.578;2023-08-20T00:46:24;100088.13;;;21.56;100.00
21234;BME280;10774;42.178;26.578;2023-08-20T00:48:49;100088.88;;;21.75;100.00
21234;BME280;10774;42.178;26.578;2023-08-20T00:51:15;100087.78;;;21.59;100.00
21234;BME280;10774;42.178;26.578;2023-08-20T00:53:40;100096.97;;;21.16;100.00
21234;BME280;10774;42.178;26.578;2023-08-20T00:56:06;100077.00;;;21.42;100.00
21234;BME280;10774;42.178;26.578;2023-08-20T00:58:32;100087.00;;;21.75;100.00
21234;BME280;10774;42.178;26.578;2023-08-20T01:00:57;100093.00;;;21.79;100.00
21234;BME280;10774;42.178;26.578;2023-08-20T01:03:23;100076.94;;;21.92;100.00
21234;BME280;10774;42.178;26.578;2023-08-20T01:05:53;100075.94;;;22.01;100.00
21234;BME280;10774;42.178;26.578;2023-08-20T01:08:39;100091.22;;;22.20;100.00
21234;BME280;10774;42.178;26.578;2023-08-20T01:11:25;100097.53;;;22.21;100.00
21234;BME280;10774;42.178;26.578;2023-08-20T01:13:54;100079.75;;;22.25;100.00
21234;BME280;10774;42.178;26.578;2023-08-20T01:16:20;100079.88;;;22.07;100.00
21234;BME280;10774;42.178;26.578;2023-08-20T01:18:47;100084.38;;;22.16;100.00
21234;BME280;10774;42.178;26.578;2023-08-20T01:30:16;100079.41;;;22.19;100.00
21234;BME280;10774;42.178;26.578;2023-08-20T01:32:43;100074.50;;;21.64;100.00
21234;BME280;10774;42.178;26.578;2023-08-20T01:35:12;100079.50;;;21.35;100.00
21234;BME280;10774;42.178;26.578;2023-08-20T01:37:39;100082.97;;;20.85;100.00
21234;BME280;10774;42.178;26.578;2023-08-20T01:40:06;100074.59;;;21.12;100.00
21234;BME280;10774;42.178;26.578;2023-08-20T01:42:32;100071.00;;;21.38;100.00
21234;BME280;10774;42.178;26.578;2023-08-20T01:44:58;100068.94;;;21.40;100.00
21234;BME280;10774;42.178;26.578;2023-08-20T01:47:23;100069.16;;;21.47;100.00
21234;BME280;10774;42.178;26.578;2023-08-20T01:49:49;100070.81;;;21.39;100.00
21234;BME280;10774;42.178;26.578;2023-08-20T01:52:14;100064.94;;;21.69;100.00
21234;BME280;10774;42.178;26.578;2023-08-20T01:54:39;100055.31;;;21.48;100.00
21234;BME280;10774;42.178;26.578;2023-08-20T01:57:05;100059.63;;;21.25;100.00
21234;BME280;10774;42.178;26.578;2023-08-20T01:59:30;100064.50;;;21.31;100.00
21234;BME280;10774;42.178;26.578;2023-08-20T02:01:55;100064.78;;;21.28;100.00
21234;BME280;10774;42.178;26.578;2023-08-20T02:04:21;100059.91;;;21.39;100.00
21234;BME280;10774;42.178;26.578;2023-08-20T02:06:46;100066.75;;;21.44;100.00
21234;BME280;10774;42.178;26.578;2023-08-20T02:09:12;100063.13;;;21.35;100.00
21234;BME280;10774;42.178;26.578;2023-08-20T02:11:37;100051.59;;;21.15;100.00
21234;BME280;10774;42.178;26.578;2023-08-20T02:14:03;100065.56;;;21.46;100.00
21234;BME280;10774;42.178;26.578;2023-08-20T02:16:28;100045.75;;;21.44;100.00
21234;BME280;10774;42.178;26.578;2023-08-20T02:18:54;100056.53;;;21.54;100.00
21234;BME280;10774;42.178;26.578;2023-08-20T02:21:19;100051.97;;;21.62;100.00
21234;BME280;10774;42.178;26.578;2023-08-20T02:23:45;100047.50;;;21.61;100.00
21234;BME280;10774;42.178;26.578;2023-08-20T02:26:10;100049.06;;;21.64;99.84
21234;BME280;10774;42.178;26.578;2023-08-20T02:28:35;100041.03;;;21.62;98.98
21234;BME280;10774;42.178;26.578;2023-08-20T02:31:04;100050.94;;;21.72;98.22
21234;BME280;10774;42.178;26.578;2023-08-20T02:33:29;100056.56;;;21.62;98.52
21234;BME280;10774;42.178;26.578;2023-08-20T02:35:55;100044.94;;;21.60;98.91
21234;BME280;10774;42.178;26.578;2023-08-20T02:38:20;100051.25;;;21.60;97.79
21234;BME280;10774;42.178;26.578;2023-08-20T02:40:45;100049.72;;;21.66;96.15
21234;BME280;10774;42.178;26.578;2023-08-20T02:43:11;100055.66;;;21.11;99.34
21234;BME280;10774;42.178;26.578;2023-08-20T02:45:43;100062.19;;;20.92;100.00
21234;BME280;10774;42.178;26.578;2023-08-20T02:48:08;100061.53;;;20.98;100.00
21234;BME280;10774;42.178;26.578;2023-08-20T02:50:34;100064.44;;;20.97;100.00
21234;BME280;10774;42.178;26.578;2023-08-20T02:53:00;100049.69;;;20.81;100.00
21234;BME280;10774;42.178;26.578;2023-08-20T02:55:25;100072.38;;;20.82;100.00
21234;BME280;10774;42.178;26.578;2023-08-20T02:57:50;100058.16;;;20.70;100.00
21234;BME280;10774;42.178;26.578;2023-08-20T03:00:16;100068.41;;;20.50;100.00
21234;BME280;10774;42.178;26.578;2023-08-20T03:02:41;100055.38;;;20.44;100.00
21234;BME280;10774;42.178;26.578;2023-08-20T03:05:08;100058.78;;;20.64;100.00
21234;BME280;10774;42.178;26.578;2023-08-20T03:07:34;100060.78;;;20.36;100.00
21234;BME280;10774;42.178;26.578;2023-08-20T03:09:59;100062.34;;;20.56;100.00
21234;BME280;10774;42.178;26.578;2023-08-20T03:12:25;100064.47;;;20.71;100.00
21234;BME280;10774;42.178;26.578;2023-08-20T03:14:50;100071.00;;;20.78;100.00
21234;BME280;10774;42.178;26.578;2023-08-20T03:17:16;100073.34;;;20.73;100.00
21234;BME280;10774;42.178;26.578;2023-08-20T03:19:58;100078.91;;;20.45;100.00
21234;BME280;10774;42.178;26.578;2023-08-20T03:22:24;100076.16;;;20.45;100.00
21234;BME280;10774;42.178;26.578;2023-08-20T03:24:50;100072.53;;;20.19;100.00
21234;BME280;10774;42.178;26.578;2023-08-20T03:27:16;100070.16;;;20.16;100.00
21234;BME280;10774;42.178;26.578;2023-08-20T03:29:41;100071.34;;;20.39;100.00
21234;BME280;10774;42.178;26.578;2023-08-20T03:32:07;100069.16;;;20.60;100.00
21234;BME280;10774;42.178;26.578;2023-08-20T03:34:32;100060.56;;;20.47;100.00
21234;BME280;10774;42.178;26.578;2023-08-20T03:36:57;100070.63;;;20.47;100.00
21234;BME280;10774;42.178;26.578;2023-08-20T03:39:23;100081.09;;;20.59;100.00
21234;BME280;10774;42.178;26.578;2023-08-20T03:41:50;100066.38;;;20.52;100.00
21234;BME280;10774;42.178;26.578;2023-08-20T03:44:16;100051.44;;;20.56;100.00
21234;BME280;10774;42.178;26.578;2023-08-20T03:46:41;100079.22;;;20.42;100.00
21234;BME280;10774;42.178;26.578;2023-08-20T03:49:07;100078.00;;;20.36;100.00
21234;BME280;10774;42.178;26.578;2023-08-20T03:51:32;100074.03;;;20.13;100.00
21234;BME280;10774;42.178;26.578;2023-08-20T03:53:57;100077.06;;;19.92;100.00
21234;BME280;10774;42.178;26.578;2023-08-20T03:56:23;100073.47;;;19.74;100.00
21234;BME280;10774;42.178;26.578;2023-08-20T03:58:48;100072.94;;;19.88;100.00
21234;BME280;10774;42.178;26.578;2023-08-20T04:01:14;100071.84;;;19.81;100.00
21234;BME280;10774;42.178;26.578;2023-08-20T04:03:39;100064.31;;;20.10;100.00
21234;BME280;10774;42.178;26.578;2023-08-20T04:06:04;100061.81;;;19.81;100.00
21234;BME280;10774;42.178;26.578;2023-08-20T04:08:30;100067.75;;;19.40;100.00
21234;BME280;10774;42.178;26.578;2023-08-20T04:10:55;100066.81;;;19.58;100.00
21234;BME280;10774;42.178;26.578;2023-08-20T04:13:21;100067.94;;;19.11;100.00
21234;BME280;10774;42.178;26.578;2023-08-20T04:15:46;100065.13;;;19.30;100.00
21234;BME280;10774;42.178;26.578;2023-08-20T04:18:12;100063.44;;;19.92;100.00
21234;BME280;10774;42.178;26.578;2023-08-20T04:20:37;100067.16;;;20.27;100.00
21234;BME280;10774;42.178;26.578;2023-08-20T04:23:02;100064.53;;;20.17;100.00
21234;BME280;10774;42.178;26.578;2023-08-20T04:25:28;100070.06;;;20.25;100.00
21234;BME280;10774;42.178;26.578;2023-08-20T04:27:53;100061.13;;;20.15;100.00
21234;BME280;10774;42.178;26.578;2023-08-20T04:30:19;100063.13;;;19.95;100.00
21234;BME280;10774;42.178;26.578;2023-08-20T04:32:45;100069.09;;;20.34;100.00
21234;BME280;10774;42.178;26.578;2023-08-20T04:35:10;100067.91;;;20.73;100.00
21234;BME280;10774;42.178;26.578;2023-08-20T04:37:36;100063.06;;;20.93;100.00
21234;BME280;10774;42.178;26.578;2023-08-20T04:40:02;100056.13;;;20.46;100.00
21234;BME280;10774;42.178;26.578;2023-08-20T04:42:31;100063.84;;;20.15;100.00
21234;BME280;10774;42.178;26.578;2023-08-20T04:44:56;100055.34;;;20.00;100.00
21234;BME280;10774;42.178;26.578;2023-08-20T04:47:21;100054.22;;;20.29;100.00
21234;BME280;10774;42.178;26.578;2023-08-20T04:49:47;100064.75;;;20.42;100.00
21234;BME280;10774;42.178;26.578;2023-08-20T04:52:12;100062.66;;;20.18;100.00
21234;BME280;10774;42.178;26.578;2023-08-20T04:54:38;100073.00;;;20.76;100.00
21234;BME280;10774;42.178;26.578;2023-08-20T04:57:03;100071.94;;;20.95;100.00
21234;BME280;10774;42.178;26.578;2023-08-20T04:59:29;100055.44;;;21.30;100.00
21234;BME280;10774;42.178;26.578;2023-08-20T05:01:54;100063.38;;;21.58;100.00
21234;BME280;10774;42.178;26.578;2023-08-20T05:04:19;100047.88;;;21.75;98.07
21234;BME280;10774;42.178;26.578;2023-08-20T05:06:45;100048.44;;;21.95;95.53
21234;BME280;10774;42.178;26.578;2023-08-20T05:09:10;100048.31;;;22.37;92.32
21234;BME280;10774;42.178;26.578;2023-08-20T05:11:36;100048.63;;;22.50;90.97
21234;BME280;10774;42.178;26.578;2023-08-20T05:14:01;100045.56;;;22.53;91.20
21234;BME280;10774;42.178;26.578;2023-08-20T05:16:27;100050.47;;;22.82;87.77
21234;BME280;10774;42.178;26.578;2023-08-20T05:18:52;100051.88;;;22.45;86.36
21234;BME280;10774;42.178;26.578;2023-08-20T05:21:17;100057.69;;;22.51;86.50
21234;BME280;10774;42.178;26.578;2023-08-20T05:23:43;100055.84;;;22.10;87.57
21234;BME280;10774;42.178;26.578;2023-08-20T05:26:08;100059.22;;;22.04;90.10
21234;BME280;10774;42.178;26.578;2023-08-20T05:28:34;100049.63;;;21.92;90.40
21234;BME280;10774;42.178;26.578;2023-08-20T05:30:59;100054.59;;;22.05;89.86
21234;BME280;10774;42.178;26.578;2023-08-20T05:33:25;100063.63;;;21.97;91.51
21234;BME280;10774;42.178;26.578;2023-08-20T05:35:51;100066.97;;;22.25;91.29
21234;BME280;10774;42.178;26.578;2023-08-20T05:38:17;100054.44;;;22.63;87.90
21234;BME280;10774;42.178;26.578;2023-08-20T05:40:42;100058.19;;;22.46;87.12
21234;BME280;10774;42.178;26.578;2023-08-20T05:43:08;100060.25;;;22.60;87.21
21234;BME280;10774;42.178;26.578;2023-08-20T05:45:33;100062.31;;;22.58;87.47
21234;BME280;10774;42.178;26.578;2023-08-20T05:47:59;100053.41;;;22.56;87.93
21234;BME280;10774;42.178;26.578;2023-08-20T05:50:25;100046.56;;;22.60;86.97
21234;BME280;10774;42.178;26.578;2023-08-20T05:52:51;100068.38;;;23.17;85.28
21234;BME280;10774;42.178;26.578;2023-08-20T05:55:17;100066.47;;;23.65;81.77
21234;BME280;10774;42.178;26.578;2023-08-20T05:57:42;100067.78;;;24.00;79.04
21234;BME280;10774;42.178;26.578;2023-08-20T06:00:09;100060.47;;;23.93;78.46
21234;BME280;10774;42.178;26.578;2023-08-20T06:02:35;100067.09;;;23.98;78.87
21234;BME280;10774;42.178;26.578;2023-08-20T06:05:01;100062.78;;;24.04;79.49
21234;BME280;10774;42.178;26.578;2023-08-20T06:07:26;100063.44;;;24.37;79.27
21234;BME280;10774;42.178;26.578;2023-08-20T06:09:52;100048.06;;;24.66;77.61
21234;BME280;10774;42.178;26.578;2023-08-20T06:12:18;100057.28;;;24.88;76.25
21234;BME280;10774;42.178;26.578;2023-08-20T06:14:43;100066.78;;;25.00;76.11
21234;BME280;10774;42.178;26.578;2023-08-20T06:17:09;100050.97;;;25.17;74.73
21234;BME280;10774;42.178;26.578;2023-08-20T06:19:34;100056.06;;;25.35;72.41
21234;BME280;10774;42.178;26.578;2023-08-20T06:22:00;100054.16;;;25.35;72.07
21234;BME280;10774;42.178;26.578;2023-08-20T06:24:25;100058.44;;;25.38;71.49
21234;BME280;10774;42.178;26.578;2023-08-20T06:26:51;100063.81;;;25.46;71.13
21234;BME280;10774;42.178;26.578;2023-08-20T06:29:17;100069.88;;;24.97;74.03
21234;BME280;10774;42.178;26.578;2023-08-20T06:31:43;100061.38;;;25.36;72.04
21234;BME280;10774;42.178;26.578;2023-08-20T06:34:08;100066.75;;;25.59;71.53
21234;BME280;10774;42.178;26.578;2023-08-20T06:36:33;100067.53;;;25.53;70.89
21234;BME280;10774;42.178;26.578;2023-08-20T06:38:59;100065.16;;;25.50;72.17
21234;BME280;10774;42.178;26.578;2023-08-20T06:41:25;100058.59;;;25.51;72.34
21234;BME280;10774;42.178;26.578;2023-08-20T06:43:51;100058.88;;;25.56;70.78
21234;BME280;10774;42.178;26.578;2023-08-20T06:46:16;100066.25;;;25.70;69.71
21234;BME280;10774;42.178;26.578;2023-08-20T06:48:41;100059.16;;;25.61;69.94
21234;BME280;10774;42.178;26.578;2023-08-20T06:51:14;100054.41;;;25.85;69.36
21234;BME280;10774;42.178;26.578;2023-08-20T06:53:43;100054.41;;;26.27;67.32
21234;BME280;10774;42.178;26.578;2023-08-20T06:56:08;100048.50;;;26.52;66.95
21234;BME280;10774;42.178;26.578;2023-08-20T06:58:35;100040.09;;;26.88;65.85
21234;BME280;10774;42.178;26.578;2023-08-20T07:01:00;100051.50;;;27.13;64.79
21234;BME280;10774;42.178;26.578;2023-08-20T07:03:43;100045.75;;;27.08;64.60
21234;BME280;10774;42.178;26.578;2023-08-20T07:06:09;100042.72;;;26.68;66.07
21234;BME280;10774;42.178;26.578;2023-08-20T07:08:36;100048.38;;;27.16;64.09
21234;BME280;10774;42.178;26.578;2023-08-20T07:11:02;100047.72;;;27.21;61.90
21234;BME280;10774;42.178;26.578;2023-08-20T07:13:28;100048.69;;;27.41;60.59
21234;BME280;10774;42.178;26.578;2023-08-20T07:15:53;100046.69;;;27.63;59.22
21234;BME280;10774;42.178;26.578;2023-08-20T07:18:19;100038.06;;;27.93;59.08
21234;BME280;10774;42.178;26.578;2023-08-20T07:20:45;100037.00;;;27.94;57.66
21234;BME280;10774;42.178;26.578;2023-08-20T07:23:11;100041.50;;;28.14;56.52
21234;BME280;10774;42.178;26.578;2023-08-20T07:25:37;100037.97;;;28.40;55.22
21234;BME280;10774;42.178;26.578;2023-08-20T07:28:04;100035.84;;;28.56;55.09
21234;BME280;10774;42.178;26.578;2023-08-20T07:30:30;100034.78;;;28.63;53.92
21234;BME280;10774;42.178;26.578;2023-08-20T07:32:55;100036.84;;;28.88;52.94
21234;BME280;10774;42.178;26.578;2023-08-20T07:35:21;100033.88;;;29.09;52.40
21234;BME280;10774;42.178;26.578;2023-08-20T07:37:47;100029.84;;;29.12;51.75
21234;BME280;10774;42.178;26.578;2023-08-20T07:40:12;100029.38;;;29.15;51.55
21234;BME280;10774;42.178;26.578;2023-08-20T07:42:40;100013.78;;;29.40;51.32
21234;BME280;10774;42.178;26.578;2023-08-20T07:45:06;100006.22;;;29.74;49.40
21234;BME280;10774;42.178;26.578;2023-08-20T07:47:32;100008.50;;;29.77;47.39
21234;BME280;10774;42.178;26.578;2023-08-20T07:49:58;100015.56;;;30.05;47.64
21234;BME280;10774;42.178;26.578;2023-08-20T07:52:23;100002.56;;;30.12;47.92
21234;BME280;10774;42.178;26.578;2023-08-20T07:54:49;100007.75;;;30.27;47.95
21234;BME280;10774;42.178;26.578;2023-08-20T07:57:14;100000.88;;;30.36;46.81
21234;BME280;10774;42.178;26.578;2023-08-20T07:59:39;99998.06;;;30.17;46.08
21234;BME280;10774;42.178;26.578;2023-08-20T08:02:05;100004.88;;;30.15;45.41
21234;BME280;10774;42.178;26.578;2023-08-20T08:04:31;99991.22;;;30.20;46.41
21234;BME280;10774;42.178;26.578;2023-08-20T08:06:56;99981.31;;;30.56;46.14
21234;BME280;10774;42.178;26.578;2023-08-20T08:09:29;99990.22;;;30.58;45.55
21234;BME280;10774;42.178;26.578;2023-08-20T08:11:55;99989.69;;;30.74;45.38
21234;BME280;10774;42.178;26.578;2023-08-20T08:14:22;99985.72;;;31.07;45.33
21234;BME280;10774;42.178;26.578;2023-08-20T08:16:47;99982.50;;;31.28;45.71
21234;BME280;10774;42.178;26.578;2023-08-20T08:19:13;99982.41;;;31.35;45.94
21234;BME280;10774;42.178;26.578;2023-08-20T08:21:38;99985.44;;;31.33;43.37
21234;BME280;10774;42.178;26.578;2023-08-20T08:24:05;99988.34;;;31.38;45.10
21234;BME280;10774;42.178;26.578;2023-08-20T08:26:30;99973.69;;;31.49;42.78
21234;BME280;10774;42.178;26.578;2023-08-20T08:28:56;99981.16;;;31.49;43.17
21234;BME280;10774;42.178;26.578;2023-08-20T08:31:22;99968.88;;;31.57;42.98
21234;BME280;10774;42.178;26.578;2023-08-20T08:33:48;99968.56;;;31.65;43.78
21234;BME280;10774;42.178;26.578;2023-08-20T08:36:13;99977.66;;;32.02;43.31
21234;BME280;10774;42.178;26.578;2023-08-20T08:38:41;99967.25;;;32.09;43.03
21234;BME280;10774;42.178;26.578;2023-08-20T08:41:10;99972.97;;;32.26;42.70
21234;BME280;10774;42.178;26.578;2023-08-20T08:43:37;99960.44;;;32.35;42.37
21234;BME280;10774;42.178;26.578;2023-08-20T08:46:06;99967.06;;;32.22;41.97
21234;BME280;10774;42.178;26.578;2023-08-20T08:48:34;99961.00;;;32.14;42.89
21234;BME280;10774;42.178;26.578;2023-08-20T08:51:02;99971.22;;;32.43;42.56
21234;BME280;10774;42.178;26.578;2023-08-20T08:53:27;99960.22;;;32.60;41.15
21234;BME280;10774;42.178;26.578;2023-08-20T08:55:53;99953.06;;;32.76;41.58
21234;BME280;10774;42.178;26.578;2023-08-20T08:58:18;99955.16;;;32.92;39.34
21234;BME280;10774;42.178;26.578;2023-08-20T09:00:44;99950.91;;;32.55;39.84
21234;BME280;10774;42.178;26.578;2023-08-20T09:03:09;99958.09;;;32.20;40.09
21234;BME280;10774;42.178;26.578;2023-08-20T09:05:48;99952.38;;;32.45;40.46
21234;BME280;10774;42.178;26.578;2023-08-20T09:08:21;99949.59;;;32.92;39.04
21234;BME280;10774;42.178;26.578;2023-08-20T09:10:51;99948.22;;;32.95;38.18
21234;BME280;10774;42.178;26.578;2023-08-20T09:13:17;99946.28;;;33.07;38.94
21234;BME280;10774;42.178;26.578;2023-08-20T09:15:42;99925.41;;;33.33;38.57
21234;BME280;10774;42.178;26.578;2023-08-20T09:18:11;99944.38;;;33.36;37.60
21234;BME280;10774;42.178;26.578;2023-08-20T09:20:37;99937.28;;;33.28;36.64
21234;BME280;10774;42.178;26.578;2023-08-20T09:23:04;99937.97;;;33.36;36.83
21234;BME280;10774;42.178;26.578;2023-08-20T09:25:29;99942.59;;;33.59;37.21
21234;BME280;10774;42.178;26.578;2023-08-20T09:27:55;99938.13;;;33.86;37.03
21234;BME280;10774;42.178;26.578;2023-08-20T09:30:20;99936.00;;;33.76;36.85
21234;BME280;10774;42.178;26.578;2023-08-20T09:33:02;99927.09;;;33.63;37.07
21234;BME280;10774;42.178;26.578;2023-08-20T09:35:28;99944.16;;;33.66;36.61
21234;BME280;10774;42.178;26.578;2023-08-20T09:37:59;99934.84;;;33.44;37.10
21234;BME280;10774;42.178;26.578;2023-08-20T09:40:26;99938.03;;;33.52;36.58
21234;BME280;10774;42.178;26.578;2023-08-20T09:42:53;99936.75;;;33.89;37.20
21234;BME280;10774;42.178;26.578;2023-08-20T09:45:20;99924.16;;;34.15;36.26
21234;BME280;10774;42.178;26.578;2023-08-20T09:47:48;99926.81;;;34.43;36.62
21234;BME280;10774;42.178;26.578;2023-08-20T09:50:17;99938.34;;;34.47;35.67
21234;BME280;10774;42.178;26.578;2023-08-20T09:53:01;99921.78;;;34.23;35.87
21234;BME280;10774;42.178;26.578;2023-08-20T09:55:32;99924.66;;;34.28;36.00
21234;BME280;10774;42.178;26.578;2023-08-20T09:58:02;99910.81;;;34.50;35.50
21234;BME280;10774;42.178;26.578;2023-08-20T10:00:28;99925.63;;;34.73;35.96
21234;BME280;10774;42.178;26.578;2023-08-20T10:02:54;99912.06;;;34.98;35.62
21234;BME280;10774;42.178;26.578;2023-08-20T10:05:20;99910.56;;;34.74;35.42
21234;BME280;10774;42.178;26.578;2023-08-20T10:07:49;99909.84;;;35.00;35.46
21234;BME280;10774;42.178;26.578;2023-08-20T10:10:15;99922.53;;;34.91;35.45
21234;BME280;10774;42.178;26.578;2023-08-20T10:12:43;99916.97;;;34.52;34.45
21234;BME280;10774;42.178;26.578;2023-08-20T10:15:12;99918.66;;;34.53;36.13
21234;BME280;10774;42.178;26.578;2023-08-20T10:17:40;99915.09;;;34.41;34.91
21234;BME280;10774;42.178;26.578;2023-08-20T10:20:06;99915.03;;;34.19;34.87
21234;BME280;10774;42.178;26.578;2023-08-20T10:22:36;99894.94;;;34.34;35.14
21234;BME280;10774;42.178;26.578;2023-08-20T10:25:08;99910.97;;;34.61;35.12
21234;BME280;10774;42.178;26.578;2023-08-20T10:27:37;99899.78;;;34.99;35.33
21234;BME280;10774;42.178;26.578;2023-08-20T10:30:11;99896.22;;;35.04;34.87
21234;BME280;10774;42.178;26.578;2023-08-20T10:35:15;99903.88;;;35.14;34.21
21234;BME280;10774;42.178;26.578;2023-08-20T10:43:29;99890.00;;;35.19;33.96
21234;BME280;10774;42.178;26.578;2023-08-20T10:46:17;99888.56;;;34.94;33.55
21234;BME280;10774;42.178;26.578;2023-08-20T10:48:52;99869.00;;;34.33;35.03
21234;BME280;10774;42.178;26.578;2023-08-20T10:54:03;99882.06;;;34.67;34.12
21234;BME280;10774;42.178;26.578;2023-08-20T10:56:54;99869.88;;;34.95;34.48
21234;BME280;10774;42.178;26.578;2023-08-20T11:01:51;99874.19;;;35.02;34.47
21234;BME280;10774;42.178;26.578;2023-08-20T11:04:18;99881.69;;;35.24;33.75
21234;BME280;10774;42.178;26.578;2023-08-20T11:06:44;99870.22;;;34.98;33.28
21234;BME280;10774;42.178;26.578;2023-08-20T11:09:10;99878.03;;;35.01;33.96
21234;BME280;10774;42.178;26.578;2023-08-20T11:11:38;99869.97;;;35.27;33.21
21234;BME280;10774;42.178;26.578;2023-08-20T11:14:07;99859.47;;;34.90;33.82
21234;BME280;10774;42.178;26.578;2023-08-20T11:16:34;99859.34;;;34.80;34.15
21234;BME280;10774;42.178;26.578;2023-08-20T11:19:00;99852.91;;;35.45;34.24
21234;BME280;10774;42.178;26.578;2023-08-20T11:21:28;99849.41;;;35.60;33.68
21234;BME280;10774;42.178;26.578;2023-08-20T11:23:55;99854.06;;;35.27;33.59
21234;BME280;10774;42.178;26.578;2023-08-20T11:26:21;99855.81;;;35.55;34.02
21234;BME280;10774;42.178;26.578;2023-08-20T11:28:46;99855.91;;;35.66;33.71
21234;BME280;10774;42.178;26.578;2023-08-20T11:31:12;99854.00;;;35.71;33.85
21234;BME280;10774;42.178;26.578;2023-08-20T11:33:38;99847.81;;;35.69;33.91
21234;BME280;10774;42.178;26.578;2023-08-20T11:36:07;99855.44;;;35.79;33.98
21234;BME280;10774;42.178;26.578;2023-08-20T11:38:32;99846.91;;;35.63;33.89
21234;BME280;10774;42.178;26.578;2023-08-20T11:40:58;99847.22;;;35.94;33.65
21234;BME280;10774;42.178;26.578;2023-08-20T11:43:30;99842.06;;;36.55;33.03
21234;BME280;10774;42.178;26.578;2023-08-20T11:45:55;99843.38;;;36.05;33.58
21234;BME280;10774;42.178;26.578;2023-08-20T11:48:22;99845.75;;;36.24;33.07
21234;BME280;10774;42.178;26.578;2023-08-20T11:50:47;99844.28;;;36.53;32.33
21234;BME280;10774;42.178;26.578;2023-08-20T11:53:13;99835.91;;;36.58;32.58
21234;BME280;10774;42.178;26.578;2023-08-20T11:55:42;99840.56;;;36.00;32.62
21234;BME280;10774;42.178;26.578;2023-08-20T11:58:13;99834.50;;;36.13;32.54
21234;BME280;10774;42.178;26.578;2023-08-20T12:00:39;99849.38;;;35.87;32.53
21234;BME280;10774;42.178;26.578;2023-08-20T12:03:05;99826.72;;;35.24;33.50
21234;BME280;10774;42.178;26.578;2023-08-20T12:05:31;99828.72;;;35.88;33.13
21234;BME280;10774;42.178;26.578;2023-08-20T12:08:01;99827.22;;;35.75;33.06
21234;BME280;10774;42.178;26.578;2023-08-20T12:10:30;99835.69;;;35.91;32.95
21234;BME280;10774;42.178;26.578;2023-08-20T12:12:56;99824.22;;;35.87;33.05
21234;BME280;10774;42.178;26.578;2023-08-20T12:15:23;99821.69;;;36.18;32.49
21234;BME280;10774;42.178;26.578;2023-08-20T12:18:04;99809.91;;;36.16;32.72
21234;BME280;10774;42.178;26.578;2023-08-20T12:20:31;99809.09;;;36.62;31.62
21234;BME280;10774;42.178;26.578;2023-08-20T12:23:04;99829.69;;;36.41;30.99
21234;BME280;10774;42.178;26.578;2023-08-20T12:25:32;99822.31;;;36.77;31.40
21234;BME280;10774;42.178;26.578;2023-08-20T12:27:59;99819.31;;;36.99;31.48
21234;BME280;10774;42.178;26.578;2023-08-20T12:30:24;99808.00;;;36.69;31.67
21234;BME280;10774;42.178;26.578;2023-08-20T12:32:50;99802.72;;;36.25;32.51
21234;BME280;10774;42.178;26.578;2023-08-20T12:35:15;99804.72;;;35.92;32.60
21234;BME280;10774;42.178;26.578;2023-08-20T12:37:41;99812.28;;;35.65;33.01
21234;BME280;10774;42.178;26.578;2023-08-20T12:40:07;99807.63;;;35.43;33.17
21234;BME280;10774;42.178;26.578;2023-08-20T12:42:38;99804.50;;;36.41;32.69
21234;BME280;10774;42.178;26.578;2023-08-20T12:45:08;99807.03;;;37.05;31.72
21234;BME280;10774;42.178;26.578;2023-08-20T12:47:36;99805.84;;;36.33;32.56
21234;BME280;10774;42.178;26.578;2023-08-20T12:50:02;99808.91;;;35.57;33.32
21234;BME280;10774;42.178;26.578;2023-08-20T12:52:29;99793.81;;;36.38;33.08
21234;BME280;10774;42.178;26.578;2023-08-20T12:54:55;99802.31;;;36.48;33.32
21234;BME280;10774;42.178;26.578;2023-08-20T12:57:20;99783.31;;;36.50;32.98
21234;BME280;10774;42.178;26.578;2023-08-20T12:59:46;99781.53;;;37.07;32.88
21234;BME280;10774;42.178;26.578;2023-08-20T13:02:11;99775.13;;;37.16;31.53